Ostby, North Dakota
Current Conditions -  °F | °C
As of 3:35 PM on Thursday 18 Dec 2014 (Local Time) from KRUG Reporting Station
Broken Clouds Broken Clouds  
Wind Chill: -13°   Ceiling: 800
Heat Index: -7°   Visibility: 10mi
Dew Point: -8°   Wind: 8mph
Humidity: 93%   Direction: 150°SSE
Pressure: 30.04"   Gusts: NA
Location:  48.5496°N, 100.255°W
Report Text: KRUG 182135Z AUTO 15007KT 10SM BKN008 M07/M08 A3004 RMK AO2
Loading
Personal Weather Stations






























Interactive Weather Map New forecast layout! Learn more

10-Day Weather Forecast

Advertisements
Track Severe Weather on mobile